Startpagina
METAR-TAF:

METAR-TAF

Vliegvelden :

King Mswati III International Airport

Manzini, Swaziland

breedte: 26-21-24S, lengte: 031-43-01E, hoogte: 324 m

Actueel weer

Dit bericht is 10 uur en het 28 minuten geleden gemaakt, om 15:00 UTC
Wind 9 kt uit het oostnoordoosten
Temperatuur 29°C
Vochtigheid 45%
Druk 1013 hPa
Zicht 10 km of meer
Weinig wolken op 4000 ft

METAR: FDSK 281500Z 07009KT 9999 FEW040 29/16 Q1013 NOSIG

Tijdstip: 03:28 (01:28 UTC)

Verwachting

Dit bericht is 15 uur en het 28 minuten geleden gemaakt, om 10:00 UTC
Verwachting geldig van 28 om 12 UTC tot 28 om 18 UTC
Wind 10 kt uit het noordnoordoosten
Zicht 10 km of meer
Gebroken wolken op 3500 ft
Wijzigt naar
van 28 om 13 UTC tot 28 om 15 UTC
Weinig wolken op 4500 ft, Stapelwolken.

TAF: FDSK 281000Z 2812/2818 03010KT 9999 BKN035 BECMG 2813/2815 FEW045TCU

Waarnemingen en weersverwachtingen van meer dan 4000 vliegvelden (METAR en TAF).

De beschikbare stations zijn de gele en rode punten op de kaart.

Ga met uw muis naar het station om de naam te zien.

Klik dan om waarnemingen en weersverwachtingen te zien.

kaart wijzigen: klik op de groene knoppen met een zwart kruis om in te zoomen, op de groene knop met een streepje om uit te zoomen of op de groene pijlen voor aangrenzende kaarten.


METAR-TAF: